Data for 03/16/2007

Time Sea-Level Adjusted Pressure Absolute Pressure Temperature Relative Humidity Dew Point   
(mb) (inHg) (mb) (inHg) (C) (F) (%) (C) (F)
00:05 1023 30.21 852 25.16 4.9 40.8 39 -7.9 17.8
00:10 1023 30.21 852 25.16 4.9 40.8 39 -8 17.5
00:15 1023 30.21 852 25.16 4.9 40.8 37 -8.5 16.6
00:20 1023 30.21 852 25.16 4.9 40.8 38 -8.2 17.2
00:25 1023 30.21 852 25.16 4.6 40.4 41 -7.6 18.4
00:30 1023 30.21 852 25.16 4.5 40.1 40 -8 17.5
00:35 1023 30.21 852 25.16 4.7 40.5 36 -9.2 15.5
00:40 1023 30.21 852 25.16 5.3 41.5 29 -11.4 11.5
00:45 1023 30.21 852 25.16 5.6 42 37 -8 17.7
00:50 1023 30.21 852 25.16 4.8 40.6 41 -7.4 18.6
00:55 1023 30.21 852 25.16 4.2 39.5 40 -8.2 17.2
01:00 1023 30.21 852 25.16 4 39.3 41 -8.2 17.2
01:05 1023 30.21 852 25.16 3.8 38.9 42 -7.8 18
01:10 1023 30.21 852 25.16 4.1 39.4 35 -9.8 14.3
01:15 1023 30.21 852 25.16 4.7 40.4 33 -10.2 13.7
01:20 1023 30.21 852 25.16 4.8 40.7 42 -7 19.4
01:25 1023 30.21 852 25.16 4.6 40.2 36 -9.1 15.6
01:30 1023 30.21 852 25.16 5 41 31 -10.9 12.5
01:35 1023 30.21 852 25.16 5.4 41.8 30 -10.6 12.9
01:40 1023 30.21 852 25.16 5.5 41.9 35 -8.7 16.3
01:45 1023 30.21 852 25.16 5 40.9 40 -7.6 18.3
01:50 1023 30.21 852 25.16 5 41.1 34 -9.5 14.9
01:55 1023 30.21 852 25.16 5.4 41.7 35 -8.8 16.1
02:00 1023 30.21 852 25.16 5.2 41.3 40 -7.2 19
02:05 1023 30.21 852 25.16 5.1 41.1 40 -7.4 18.6
02:10 1023 30.21 852 25.16 5.1 41.1 39 -7.7 18.1
02:15 1023 30.21 852 25.16 4.8 40.6 41 -7.2 19
02:20 1023 30.21 852 25.16 4.7 40.5 40 -7.9 17.7
02:25 1023 30.21 852 25.16 5 41 41 -7.3 18.9
02:30 1023 30.21 852 25.16 5.1 41.1 39 -7.9 17.8
02:35 1023 30.21 852 25.16 5.3 41.5 40 -7.3 18.8
02:40 1023 30.21 852 25.16 5.3 41.5 40 -7.3 18.9
02:45 1023 30.21 852 25.16 5.1 41.2 42 -6.9 19.7
02:50 1023 30.21 852 25.16 5.1 41.2 37 -8.3 17.1
02:55 1023 30.21 852 25.16 5.5 41.9 35 -8.8 16.1
03:00 1023 30.21 852 25.16 5.6 42.1 39 -7.3 18.8
03:05 1023 30.21 852 25.16 5 41.1 41 -7.2 19
03:10 1023 30.21 852 25.16 4.9 40.9 38 -8.1 17.4
03:15 1023 30.21 852 25.16 5.1 41.2 41 -6.9 19.5
03:20 1023 30.21 852 25.16 5 41 42 -6.7 19.9
03:25 1023 30.21 852 25.16 4.9 40.9 42 -6.9 19.7
03:30 1023 30.21 852 25.16 4.8 40.7 43 -6.6 20.1
03:35 1023 30.21 852 25.16 4.8 40.6 42 -7 19.4
03:40 1023 30.21 852 25.16 4.8 40.7 43 -6.7 20
03:45 1022 30.18 852 25.16 4.8 40.6 45 -6 21.2
03:50 1022 30.18 852 25.16 4.7 40.5 45 -6.3 20.6
03:55 1022 30.18 852 25.16 4.7 40.4 45 -6.1 20.9
04:00 1022 30.18 851 25.13 4.6 40.2 46 -6 21.2
04:05 1022 30.18 851 25.13 4.7 40.4 45 -6.2 20.8
04:10 1022 30.18 851 25.13 4.8 40.6 47 -5.5 22
04:15 1022 30.18 851 25.13 4.6 40.3 48 -5.6 22
04:20 1022 30.18 851 25.13 4.5 40 49 -5.4 22.3
04:25 1022 30.18 851 25.13 4.1 39.4 49 -5.7 21.7
04:30 1022 30.18 851 25.13 4.1 39.3 47 -6.1 21
04:35 1022 30.18 851 25.13 4.2 39.5 46 -6.5 20.4
04:40 1022 30.18 851 25.13 4.3 39.7 47 -6.2 20.9
04:45 1022 30.18 851 25.13 4.4 39.9 45 -6.6 20.1
04:50 1022 30.18 851 25.13 4.5 40.2 46 -6 21.2
04:55 1022 30.18 851 25.13 4.5 40.1 46 -6.2 20.8
05:00 1022 30.18 851 25.13 4.3 39.7 46 -6.5 20.4
05:05 1022 30.18 851 25.13 4.2 39.5 46 -6.5 20.3
05:10 1022 30.18 851 25.13 4.1 39.4 47 -6.3 20.7
05:15 1022 30.18 851 25.13 3.9 39.1 47 -6.5 20.3
05:20 1022 30.18 851 25.13 4 39.1 48 -6.2 20.9
05:25 1022 30.18 851 25.13 4.1 39.4 47 -6.1 21
05:30 1022 30.18 851 25.13 4.3 39.7 45 -6.6 20.2
05:35 1022 30.18 851 25.13 4.3 39.8 46 -6.3 20.7
05:40 1022 30.18 851 25.13 4.5 40.1 41 -7.7 18.2
05:45 1022 30.18 851 25.13 4.7 40.4 41 -7.4 18.7
05:50 1022 30.18 851 25.13 4.8 40.6 38 -8.2 17.2
05:55 1022 30.18 851 25.13 4.8 40.7 41 -7.4 18.7
06:00 1022 30.18 851 25.13 4.7 40.5 45 -6.3 20.7
06:05 1022 30.18 851 25.13 4.5 40.2 46 -6.1 21
06:10 1022 30.18 851 25.13 4.4 40 47 -5.9 21.4
06:15 1022 30.18 851 25.13 4.4 39.9 48 -5.6 21.9
06:20 1022 30.18 851 25.13 4.3 39.7 47 -6 21.3
06:25 1022 30.18 851 25.13 4.2 39.6 48 -5.7 21.7
06:30 1022 30.18 851 25.13 4.5 40 48 -5.7 21.7
06:35 1022 30.18 851 25.13 4.4 39.9 51 -4.9 23.1
06:40 1022 30.18 851 25.13 3.9 39 52 -5.1 22.9
06:45 1022 30.18 851 25.13 3.8 38.8 52 -5.1 22.8
06:50 1022 30.18 851 25.13 3.8 38.8 53 -5 23.1
06:55 1022 30.18 851 25.13 4 39.1 46 -6.6 20.1
07:00 1022 30.18 851 25.13 4.7 40.5 46 -6 21.3
07:05 1022 30.18 851 25.13 5 41 48 -5.2 22.7
07:10 1022 30.18 851 25.13 4.7 40.5 48 -5.3 22.5
07:15 1022 30.18 851 25.13 4.5 40.1 46 -6.1 21.1
07:20 1022 30.18 851 25.13 4.5 40 46 -6.2 20.9
07:25 1022 30.18 851 25.13 4.6 40.2 45 -6.4 20.5
07:30 1022 30.18 851 25.13 4.7 40.5 45 -6.2 20.9
07:35 1022 30.18 851 25.13 4.8 40.7 38 -8.3 17.1
07:40 1022 30.18 851 25.13 5.3 41.6 34 -9.3 15.3
07:45 1022 30.18 851 25.13 5.9 42.6 33 -9.3 15.3
07:50 1022 30.18 851 25.13 6.2 43.1 39 -6.6 20.1
07:55 1022 30.18 851 25.13 6.1 42.9 40 -6.6 20.2
08:00 1022 30.18 851 25.13 5.8 42.4 37 -7.7 18.1
08:05 1022 30.18 851 25.13 5.8 42.4 37 -7.8 18
08:10 1022 30.18 851 25.13 5.8 42.4 34 -9.1 15.7
08:15 1022 30.18 851 25.13 6 42.8 36 -8.1 17.4
08:20 1022 30.18 851 25.13 6 42.8 37 -7.5 18.4
08:25 1022 30.18 851 25.13 6 42.8 38 -7.1 19.2
08:30 1022 30.18 851 25.13 5.9 42.7 47 -4.5 23.9
08:35 1022 30.18 851 25.13 5.4 41.8 50 -4 24.7
08:40 1022 30.18 851 25.13 5.1 41.1 54 -3.6 25.5
08:45 1022 30.18 851 25.13 5.1 41.2 55 -3.1 26.3
08:50 1022 30.18 851 25.13 5.3 41.6 55 -2.9 26.8
08:55 1022 30.18 851 25.13 5.6 42 53 -3.3 26.1
09:00 1022 30.18 851 25.13 5.8 42.5 55 -2.5 27.5
09:05 1022 30.18 851 25.13 5.9 42.6 54 -2.7 27.2
09:10 1022 30.18 851 25.13 6.1 43 54 -2.4 27.7
09:15 1022 30.18 851 25.13 6.1 42.9 56 -2.1 28.1
09:20 1021 30.15 851 25.13 6 42.9 54 -2.6 27.3
09:25 1021 30.15 851 25.13 6.3 43.4 52 -2.7 27.2
09:30 1022 30.18 851 25.13 6.5 43.7 57 -1.4 29.4
09:35 1022 30.18 851 25.13 6.6 43.9 56 -1.5 29.4
09:40 1022 30.18 851 25.13 6.7 44.1 51 -2.7 27.2
09:45 1021 30.15 851 25.13 6.9 44.5 49 -3.1 26.4
09:50 1021 30.15 851 25.13 7.3 45.2 45 -3.9 25
09:55 1021 30.15 851 25.13 7.9 46.1 40 -5 23.1
10:00 1021 30.15 851 25.13 8.2 46.7 39 -4.9 23.1
10:05 1021 30.15 851 25.13 8.5 47.3 36 -5.9 21.4
10:10 1021 30.15 850 25.1 8.8 47.9 36 -5.6 22
10:15 1021 30.15 850 25.1 9 48.1 37 -4.8 23.4
10:20 1021 30.15 851 25.13 9.2 48.6 35 -5.3 22.4
10:25 1021 30.15 851 25.13 9.4 48.9 34 -5.5 22.1
10:30 1021 30.15 851 25.13 9.6 49.3 34 -5.6 22
10:35 1021 30.15 851 25.13 9.7 49.5 32 -6 21.2
10:40 1021 30.15 851 25.13 10.9 51.5 30 -5.8 21.6
10:45 1021 30.15 851 25.13 11.8 53.2 30 -5.3 22.5
10:50 1021 30.15 851 25.13 11.5 52.7 31 -5 22.9
10:55 1021 30.15 850 25.1 11.2 52.1 32 -4.9 23.1
11:00 1021 30.15 850 25.1 11.2 52.1 32 -5 23
11:05 1021 30.15 850 25.1 11.6 52.8 32 -4.6 23.8
11:10 1021 30.15 850 25.1 12 53.6 32 -4.3 24.3
11:15 1021 30.15 850 25.1 12.4 54.4 31 -4.2 24.5
11:20 1021 30.15 850 25.1 12.8 55.1 31 -4 24.8
11:25 1021 30.15 850 25.1 13.3 55.9 30 -3.8 25.1
11:30 1021 30.15 850 25.1 13.2 55.8 31 -3.4 25.8
11:35 1021 30.15 850 25.1 13.2 55.7 31 -3.5 25.7
11:40 1021 30.15 850 25.1 13.2 55.8 31 -3.6 25.4
11:45 1021 30.15 850 25.1 12.4 54.3 34 -3.2 26.3
11:50 1021 30.15 850 25.1 12.6 54.6 34 -3 26.6
11:55 1021 30.15 850 25.1 12.6 54.7 34 -2.9 26.8
12:00 1021 30.15 850 25.1 12.9 55.3 33 -2.8 26.9
12:05 1021 30.15 850 25.1 12.3 54.2 34 -2.9 26.8
12:10 1021 30.15 850 25.1 12.8 55 35 -2.3 27.8
12:15 1021 30.15 850 25.1 12.7 54.9 35 -2.4 27.7
12:20 1020 30.12 850 25.1 13.1 55.5 34 -2.2 28.1
12:25 1020 30.12 850 25.1 13 55.3 35 -2 28.3
12:30 1020 30.12 850 25.1 13.3 55.9 35 -1.9 28.5
12:35 1020 30.12 850 25.1 13.7 56.7 33 -2.1 28.2
12:40 1020 30.12 849 25.07 13.9 57.1 33 -2.2 28.1
12:45 1020 30.12 849 25.07 14 57.2 32 -2.2 28
12:50 1020 30.12 849 25.07 14.1 57.4 32 -2.1 28.2
12:55 1020 30.12 849 25.07 14.1 57.5 32 -2.2 28.1
13:00 1020 30.12 849 25.07 14.2 57.5 32 -2.2 28.1
13:05 1020 30.12 849 25.07 14.2 57.5 33 -1.8 28.8
13:10 1020 30.12 849 25.07 14.1 57.4 32 -2.1 28.1
13:15 1020 30.12 849 25.07 14 57.2 33 -1.9 28.5
13:20 1020 30.12 849 25.07 14 57.2 33 -2 28.5
13:25 1020 30.12 849 25.07 14 57.1 33 -2.1 28.2
13:30 1020 30.12 849 25.07 13.9 57.1 33 -1.9 28.5
13:35 1020 30.12 849 25.07 13.9 57 33 -2.2 28.1
13:40 1020 30.12 849 25.07 13.9 57 33 -2.2 28.1
13:45 1020 30.12 849 25.07 13.9 57.1 32 -2.3 27.8
13:50 1020 30.12 849 25.07 14 57.1 33 -1.9 28.5
13:55 1020 30.12 849 25.07 13.9 56.9 33 -2.1 28.2
14:00 1020 30.12 849 25.07 13.8 56.9 33 -2.2 28
14:05 1020 30.12 849 25.07 13.9 56.9 32 -2.4 27.8
14:10 1020 30.12 849 25.07 13.9 57 33 -1.8 28.7
14:15 1020 30.12 849 25.07 13.8 56.8 34 -1.8 28.8
14:20 1020 30.12 849 25.07 13.8 56.9 34 -1.6 29
14:25 1020 30.12 849 25.07 13.8 56.8 34 -1.8 28.8
14:30 1020 30.12 849 25.07 13.8 56.8 34 -1.9 28.6
14:35 1020 30.12 849 25.07 13.8 56.8 34 -1.6 29.1
14:40 1020 30.12 849 25.07 13.7 56.7 35 -1.5 29.2
14:45 1020 30.12 849 25.07 13.8 56.8 34 -1.7 28.9
14:50 1020 30.12 849 25.07 13.9 56.9 34 -1.6 29.1
14:55 1020 30.12 849 25.07 13.9 56.9 35 -1.1 29.9
15:00 1020 30.12 849 25.07 13.8 56.9 35 -1.4 29.4
15:05 1020 30.12 849 25.07 13.9 57 35 -1.2 29.9
15:10 1020 30.12 849 25.07 13.9 57.1 35 -1.2 29.9
15:15 1020 30.12 849 25.07 13.9 57 35 -1.4 29.5
15:20 1020 30.12 849 25.07 13.8 56.8 35 -1.5 29.3
15:25 1020 30.12 849 25.07 13.8 56.9 34 -1.6 29.1
15:30 1020 30.12 849 25.07 13.9 57 34 -1.5 29.4
15:35 1020 30.12 849 25.07 14 57.2 34 -1.6 29.1
15:40 1020 30.12 849 25.07 14.1 57.4 34 -1.3 29.6
15:45 1020 30.12 849 25.07 14.1 57.4 34 -1.5 29.4
15:50 1020 30.12 849 25.07 14.2 57.5 34 -1.3 29.6
15:55 1020 30.12 849 25.07 14.1 57.4 35 -0.9 30.3
16:00 1020 30.12 849 25.07 13.9 57 37 -0.5 31.1
16:05 1020 30.12 849 25.07 13.8 56.8 40 0.6 33.1
16:10 1020 30.12 849 25.07 13.6 56.5 38 -0.3 31.5
16:15 1020 30.12 849 25.07 13.7 56.6 36 -0.9 30.3
16:20 1020 30.12 849 25.07 13.7 56.7 36 -0.9 30.4
16:25 1020 30.12 849 25.07 13.7 56.6 36 -0.9 30.5
16:30 1020 30.12 850 25.1 13.5 56.3 40 0.1 32.2
16:35 1020 30.12 850 25.1 13.2 55.7 46 1.8 35.3
16:40 1021 30.15 850 25.1 12.8 55 48 2 35.7
16:45 1021 30.15 850 25.1 12.5 54.6 47 1.5 34.7
16:50 1021 30.15 850 25.1 12.6 54.6 48 1.9 35.4
16:55 1021 30.15 850 25.1 12.6 54.6 47 1.7 35.1
17:00 1021 30.15 850 25.1 12.5 54.4 50 2.4 36.3
17:05 1020 30.12 850 25.1 12.3 54.1 51 2.5 36.4
17:10 1020 30.12 849 25.07 12.3 54.1 50 2.2 35.9
17:15 1020 30.12 850 25.1 12.4 54.2 50 2.2 36
17:20 1020 30.12 850 25.1 12.5 54.5 47 1.6 34.9
17:25 1020 30.12 849 25.07 12.6 54.6 47 1.6 34.8
17:30 1020 30.12 849 25.07 12.6 54.6 47 1.6 34.8
17:35 1020 30.12 849 25.07 12.5 54.6 48 1.8 35.2
17:40 1020 30.12 849 25.07 12.6 54.8 47 1.6 34.9
17:45 1020 30.12 849 25.07 12.7 54.8 47 1.6 34.8
17:50 1020 30.12 849 25.07 12.7 54.9 46 1.5 34.7
17:55 1020 30.12 849 25.07 12.8 55 47 1.7 35.1
18:00 1020 30.12 849 25.07 12.7 54.9 46 1.5 34.6
18:05 1020 30.12 849 25.07 12.7 54.9 48 1.9 35.5
18:10 1020 30.12 849 25.07 12.6 54.7 47 1.7 35
18:15 1020 30.12 849 25.07 12.6 54.6 49 2.1 35.7
18:20 1020 30.12 849 25.07 12.5 54.5 48 1.8 35.2
18:25 1020 30.12 850 25.1 12.4 54.3 49 2 35.6
18:30 1020 30.12 850 25.1 12.3 54.1 48 1.8 35.2
18:35 1020 30.12 850 25.1 12.2 53.9 50 2.2 36
18:40 1020 30.12 850 25.1 11.8 53.2 51 2 35.7
18:45 1020 30.12 850 25.1 11.7 53.1 51 1.9 35.3
18:50 1020 30.12 850 25.1 11.8 53.2 50 1.8 35.3
18:55 1020 30.12 850 25.1 12 53.7 48 1.4 34.5
19:00 1020 30.12 850 25.1 12.1 53.8 48 1.6 34.9
19:05 1020 30.12 850 25.1 12.2 53.9 48 1.5 34.6
19:10 1021 30.15 850 25.1 12.1 53.7 49 1.8 35.2
19:15 1021 30.15 850 25.1 11.7 53.1 48 1.1 34
19:20 1021 30.15 850 25.1 11.8 53.3 47 0.9 33.6
19:25 1021 30.15 850 25.1 11.9 53.5 47 1 33.9
19:30 1021 30.15 850 25.1 12 53.6 48 1.2 34.2
19:35 1021 30.15 850 25.1 11.9 53.5 49 1.6 34.8
19:40 1021 30.15 850 25.1 11.2 52.2 54 2.2 36
19:45 1021 30.15 850 25.1 10.4 50.7 53 1.3 34.4
19:50 1021 30.15 850 25.1 10.5 50.8 53 1.3 34.3
19:55 1021 30.15 850 25.1 10.3 50.5 55 1.8 35.2
20:00 1021 30.15 850 25.1 9.7 49.5 56 1.4 34.6
20:05 1021 30.15 850 25.1 9.8 49.6 54 0.9 33.6
20:10 1021 30.15 850 25.1 10.1 50.1 53 1 33.8
20:15 1021 30.15 850 25.1 10.1 50.2 54 1.3 34.4
20:20 1021 30.15 850 25.1 10 50 52 0.7 33.3
20:25 1021 30.15 850 25.1 10.2 50.3 53 0.9 33.7
20:30 1021 30.15 850 25.1 10.2 50.3 53 1.1 33.9
20:35 1020 30.12 850 25.1 9.9 49.8 54 1.2 34.1
20:40 1020 30.12 850 25.1 9.4 49 55 0.9 33.7
20:45 1020 30.12 850 25.1 9.4 49 55 0.8 33.4
20:50 1020 30.12 850 25.1 9.5 49 55 0.8 33.4
20:55 1020 30.12 850 25.1 9.5 49.2 54 0.7 33.3
21:00 1020 30.12 850 25.1 9.7 49.4 54 1 33.7
21:05 1020 30.12 850 25.1 9.2 48.6 56 0.9 33.6
21:10 1020 30.12 850 25.1 9.2 48.6 55 0.7 33.3
21:15 1020 30.12 850 25.1 9.2 48.6 55 0.7 33.3
21:20 1020 30.12 850 25.1 9.1 48.3 56 0.7 33.3
21:25 1020 30.12 850 25.1 9 48.2 56 0.6 33.1
21:30 1020 30.12 850 25.1 8.8 47.9 57 0.7 33.3
21:35 1020 30.12 850 25.1 8.6 47.6 57 0.8 33.4
21:40 1020 30.12 850 25.1 8.7 47.7 57 0.8 33.4
21:45 1020 30.12 850 25.1 9.1 48.4 55 0.7 33.2
21:50 1020 30.12 850 25.1 8.9 48 57 0.8 33.5
21:55 1020 30.12 850 25.1 8.6 47.4 58 0.7 33.3
22:00 1020 30.12 850 25.1 8.8 47.8 56 0.6 33.1
22:05 1020 30.12 850 25.1 8.9 48.1 55 0.5 32.9
22:10 1020 30.12 850 25.1 8.9 48.1 55 0.4 32.7
22:15 1020 30.12 850 25.1 9 48.1 56 0.6 33
22:20 1020 30.12 850 25.1 8.7 47.7 56 0.4 32.6
22:25 1020 30.12 850 25.1 8.3 47 57 0.3 32.5
22:30 1020 30.12 850 25.1 8.1 46.5 58 0.2 32.4
22:35 1021 30.15 850 25.1 8 46.4 58 0.2 32.3
22:40 1021 30.15 850 25.1 8.1 46.5 58 0.2 32.4
22:45 1021 30.15 850 25.1 8.4 47.2 55 0.1 32.1
22:50 1021 30.15 850 25.1 8.2 46.8 57 0.1 32.2
22:55 1021 30.15 850 25.1 7.9 46.1 58 0.1 32.2
23:00 1021 30.15 850 25.1 7.7 45.8 58 0 32
23:05 1021 30.15 850 25.1 7.9 46.3 57 0.1 32.1
23:10 1021 30.15 850 25.1 7.9 46.2 58 0.1 32.2
23:15 1021 30.15 850 25.1 7.9 46.1 58 0 32
23:20 1021 30.15 850 25.1 8 46.4 55 -0.4 31.4
23:25 1021 30.15 850 25.1 8.2 46.8 56 -0 32
23:30 1020 30.12 850 25.1 8.2 46.7 56 -0.2 31.7
23:35 1021 30.15 850 25.1 8.1 46.5 56 -0.2 31.7
23:40 1021 30.15 850 25.1 7.9 46.2 56 -0.4 31.4
23:45 1021 30.15 850 25.1 7.7 45.8 56 -0.5 31.1
23:50 1021 30.15 850 25.1 8 46.4 56 -0.3 31.5
23:55 1020 30.12 850 25.1 7.7 45.8 58 -0.1 31.7
24:00 1020 30.12 850 25.1 7.3 45.1 58 -0.3 31.4